createdAt,value
2022-11-16T00:02:36.384Z,7.26
2022-11-16T00:05:39.297Z,7.21
2022-11-16T00:09:06.909Z,7.35
2022-11-16T00:12:15.027Z,7.47
2022-11-16T00:15:17.643Z,7.59
2022-11-16T00:18:20.473Z,7.45
2022-11-16T00:21:23.162Z,7.29
2022-11-16T00:24:25.972Z,7.45
2022-11-16T00:27:28.415Z,7.47
2022-11-16T00:30:31.536Z,7.31
2022-11-16T00:33:35.138Z,7.28
2022-11-16T00:36:44.707Z,7.28
2022-11-16T00:39:47.161Z,7.44
2022-11-16T00:42:50.083Z,7.52
2022-11-16T00:45:53.226Z,7.50
2022-11-16T00:48:56.198Z,7.35
2022-11-16T00:51:58.734Z,7.21
2022-11-16T00:55:01.768Z,7.23
2022-11-16T00:58:04.555Z,7.08
2022-11-16T01:01:09.361Z,7.29
2022-11-16T01:04:12.093Z,7.28
2022-11-16T01:07:15.043Z,7.29
2022-11-16T01:10:20.958Z,7.25
2022-11-16T01:13:23.802Z,7.17
2022-11-16T01:16:26.547Z,7.21
2022-11-16T01:19:29.314Z,7.22
2022-11-16T01:22:34.722Z,7.44
2022-11-16T01:25:37.465Z,7.31
2022-11-16T01:28:40.090Z,7.33
2022-11-16T01:31:43.304Z,7.13
2022-11-16T01:34:45.874Z,7.20
2022-11-16T01:37:50.623Z,7.20
2022-11-16T01:40:53.510Z,7.27
2022-11-16T01:44:03.585Z,7.20
2022-11-16T01:47:10.294Z,7.13
2022-11-16T01:50:17.193Z,7.32
2022-11-16T01:53:20.263Z,7.25
2022-11-16T01:56:24.868Z,7.37
2022-11-16T01:59:30.393Z,7.53
2022-11-16T02:02:33.936Z,7.37
2022-11-16T02:05:56.894Z,7.17
2022-11-16T02:09:33.778Z,7.29
2022-11-16T02:12:49.369Z,7.39
2022-11-16T02:16:02.024Z,7.45
2022-11-16T02:19:51.409Z,7.46
2022-11-16T02:23:06.755Z,7.62
2022-11-16T02:26:36.383Z,7.40
2022-11-16T02:29:42.821Z,7.32
2022-11-16T02:32:59.637Z,7.37
2022-11-16T02:36:06.027Z,7.38
2022-11-16T02:39:14.784Z,7.43
2022-11-16T02:42:23.048Z,7.40
2022-11-16T02:45:30.411Z,7.45
2022-11-16T02:48:38.152Z,7.24
2022-11-16T02:51:42.155Z,7.40
2022-11-16T02:54:45.162Z,7.40
2022-11-16T02:58:03.135Z,7.57
2022-11-16T03:01:13.112Z,7.66
2022-11-16T03:04:28.099Z,7.61
2022-11-16T03:07:39.024Z,7.57
2022-11-16T03:11:05.161Z,7.58
2022-11-16T03:14:17.010Z,7.54
2022-11-16T03:17:42.174Z,7.39
2022-11-16T03:20:48.297Z,7.40
2022-11-16T03:23:51.386Z,7.36
2022-11-16T03:27:13.222Z,7.33
2022-11-16T03:30:24.746Z,7.18
2022-11-16T03:33:39.734Z,7.30
2022-11-16T03:36:47.292Z,7.53
2022-11-16T03:39:53.380Z,7.18
2022-11-16T03:42:58.150Z,7.06
2022-11-16T03:46:01.106Z,7.10
2022-11-16T03:49:05.846Z,7.31
2022-11-16T03:52:09.232Z,7.37
2022-11-16T03:55:11.779Z,7.34
2022-11-16T03:58:14.624Z,7.53
2022-11-16T04:01:18.264Z,7.62
2022-11-16T04:04:43.239Z,7.52
2022-11-16T04:08:06.746Z,7.45
2022-11-16T04:11:32.863Z,7.40
2022-11-16T04:14:54.028Z,7.59
2022-11-16T04:18:16.781Z,7.62
2022-11-16T04:21:44.140Z,7.63
2022-11-16T04:24:54.953Z,7.58
2022-11-16T04:28:14.102Z,7.58
2022-11-16T04:31:37.743Z,7.59
2022-11-16T04:34:59.791Z,7.45
2022-11-16T04:38:03.624Z,7.25
2022-11-16T04:41:26.493Z,7.21
2022-11-16T04:44:56.607Z,7.28
2022-11-16T04:47:59.477Z,7.30
2022-11-16T04:51:03.990Z,7.13
2022-11-16T04:54:07.098Z,7.27
2022-11-16T04:57:09.875Z,7.25
2022-11-16T05:00:13.791Z,7.19
2022-11-16T05:03:16.853Z,7.23
2022-11-16T05:06:20.040Z,7.39
2022-11-16T05:09:24.002Z,7.32
2022-11-16T05:12:27.946Z,7.22
2022-11-16T05:15:31.099Z,7.10
2022-11-16T05:18:34.708Z,7.40
2022-11-16T05:21:38.789Z,7.28
2022-11-16T05:24:41.796Z,7.18
2022-11-16T05:27:44.722Z,7.14
2022-11-16T05:30:47.467Z,7.31
2022-11-16T05:33:51.374Z,7.18
2022-11-16T05:36:54.621Z,7.48
2022-11-16T05:39:58.047Z,7.45
2022-11-16T05:43:03.659Z,7.42
2022-11-16T05:46:06.962Z,7.16
2022-11-16T05:49:12.089Z,7.30
2022-11-16T05:52:15.627Z,7.57
2022-11-16T05:55:19.295Z,7.49
2022-11-16T05:58:22.733Z,7.54
2022-11-16T06:01:26.371Z,7.59
2022-11-16T06:04:29.389Z,7.55
2022-11-16T06:07:32.219Z,7.68
2022-11-16T06:10:35.299Z,7.33
2022-11-16T06:13:38.239Z,7.47
2022-11-16T06:16:41.667Z,7.56
2022-11-16T06:19:44.850Z,7.60
2022-11-16T06:22:48.254Z,7.53
2022-11-16T06:25:55.369Z,7.42
2022-11-16T06:28:58.672Z,7.52
2022-11-16T06:32:01.314Z,7.52
2022-11-16T06:35:04.710Z,7.63
2022-11-16T06:38:08.303Z,7.45
2022-11-16T06:41:11.386Z,7.55
2022-11-16T06:44:14.786Z,7.37
2022-11-16T06:47:18.227Z,7.48
2022-11-16T06:50:21.148Z,7.65
2022-11-16T06:53:28.966Z,7.31
2022-11-16T06:56:34.766Z,7.39
2022-11-16T06:59:37.703Z,7.61
2022-11-16T07:02:40.659Z,7.67
2022-11-16T07:05:43.911Z,7.74
2022-11-16T07:08:47.338Z,7.81
2022-11-16T07:11:51.269Z,7.67
2022-11-16T07:14:54.773Z,7.68
2022-11-16T07:18:07.818Z,7.68
2022-11-16T07:21:13.617Z,7.84
2022-11-16T07:24:16.739Z,7.64
2022-11-16T07:27:19.373Z,7.76
2022-11-16T07:30:23.686Z,7.90
2022-11-16T07:33:26.554Z,8.00
2022-11-16T07:36:30.815Z,7.95
2022-11-16T07:39:33.771Z,8.09
2022-11-16T07:42:37.083Z,8.10
2022-11-16T07:45:40.897Z,8.13
2022-11-16T07:48:45.491Z,8.03
2022-11-16T07:51:50.132Z,8.00
2022-11-16T07:54:53.258Z,7.84
2022-11-16T07:57:58.816Z,7.54
2022-11-16T08:01:07.065Z,7.91
2022-11-16T08:04:10.456Z,7.81
2022-11-16T08:07:14.633Z,7.89
2022-11-16T08:10:18.474Z,7.80
2022-11-16T08:13:21.267Z,8.11
2022-11-16T08:16:24.460Z,8.09
2022-11-16T08:19:29.225Z,7.71
2022-11-16T08:22:32.261Z,7.84
2022-11-16T08:25:34.715Z,7.99
2022-11-16T08:28:38.083Z,8.94
2022-11-16T08:31:40.713Z,9.19
2022-11-16T08:34:43.647Z,9.09
2022-11-16T08:37:46.663Z,9.21
2022-11-16T08:40:50.917Z,8.86
2022-11-16T08:43:54.114Z,8.61
2022-11-16T08:46:57.094Z,9.36
2022-11-16T08:50:00.558Z,9.04
2022-11-16T08:53:04.633Z,8.88
2022-11-16T08:56:13.348Z,9.16
2022-11-16T08:59:17.472Z,9.06
2022-11-16T09:02:25.497Z,9.56
2022-11-16T09:05:29.233Z,9.31
2022-11-16T09:08:32.073Z,9.55
2022-11-16T09:11:35.220Z,9.17
2022-11-16T09:14:37.783Z,9.21
2022-11-16T09:17:40.689Z,9.07
2022-11-16T09:20:45.357Z,9.21
2022-11-16T09:23:49.300Z,9.15
2022-11-16T09:26:51.805Z,9.13
2022-11-16T09:29:54.665Z,9.40
2022-11-16T09:32:59.009Z,9.15
2022-11-16T09:36:07.019Z,9.30
2022-11-16T09:39:30.494Z,9.30
2022-11-16T09:42:49.035Z,9.63
2022-11-16T09:46:36.838Z,9.35
2022-11-16T09:49:44.383Z,9.41
2022-11-16T09:52:51.525Z,9.46
2022-11-16T09:55:59.053Z,9.98
2022-11-16T09:59:15.106Z,9.38
2022-11-16T10:02:33.216Z,9.73
2022-11-16T10:05:46.559Z,9.50
2022-11-16T10:08:56.655Z,9.38
2022-11-16T10:12:21.521Z,9.20
2022-11-16T10:15:50.611Z,9.06
2022-11-16T10:19:06.041Z,9.79
2022-11-16T10:22:21.283Z,10.50
2022-11-16T10:25:30.727Z,9.76
2022-11-16T10:28:54.808Z,9.58
2022-11-16T10:32:11.946Z,9.52
2022-11-16T10:35:24.798Z,9.26
2022-11-16T10:38:30.925Z,9.40
2022-11-16T10:41:42.898Z,9.66
2022-11-16T10:44:52.442Z,9.54
2022-11-16T10:48:04.392Z,9.69
2022-11-16T10:51:10.360Z,10.44
2022-11-16T10:54:14.040Z,9.59
2022-11-16T10:57:17.900Z,9.48
2022-11-16T11:00:51.822Z,9.13
2022-11-16T11:03:54.991Z,9.10
2022-11-16T11:07:00.159Z,9.15
2022-11-16T11:10:05.059Z,9.05
2022-11-16T11:13:10.642Z,9.33
2022-11-16T11:16:18.363Z,9.38
2022-11-16T11:19:27.553Z,9.31
2022-11-16T11:22:40.930Z,8.99
2022-11-16T11:25:55.791Z,9.24
2022-11-16T11:29:02.135Z,9.36
2022-11-16T11:32:08.069Z,9.28
2022-11-16T11:35:27.553Z,9.36
2022-11-16T11:38:30.560Z,9.24
2022-11-16T11:42:07.064Z,9.09
2022-11-16T11:45:15.424Z,9.24
2022-11-16T11:48:32.171Z,9.26
2022-11-16T11:51:40.271Z,8.99
2022-11-16T11:54:49.170Z,9.04
2022-11-16T11:57:53.798Z,9.19
2022-11-16T12:01:05.648Z,9.16
2022-11-16T12:04:08.397Z,9.17
2022-11-16T12:07:49.272Z,9.24
2022-11-16T12:10:58.127Z,9.32
2022-11-16T12:14:23.927Z,8.92
2022-11-16T12:17:45.646Z,9.14
2022-11-16T12:21:14.073Z,9.04
2022-11-16T12:24:52.574Z,8.99
2022-11-16T12:28:17.037Z,9.24
2022-11-16T12:31:40.076Z,9.21
2022-11-16T12:34:42.556Z,9.02
2022-11-16T12:37:45.352Z,9.26
2022-11-16T12:41:10.528Z,9.26
2022-11-16T12:44:32.544Z,9.16
2022-11-16T12:47:49.877Z,9.15
2022-11-16T12:51:15.023Z,9.23
2022-11-16T12:54:26.739Z,9.19
2022-11-16T12:57:32.668Z,9.25
2022-11-16T13:00:46.545Z,9.23
2022-11-16T13:04:22.276Z,9.09
2022-11-16T13:07:30.152Z,9.20
2022-11-16T13:10:42.992Z,9.25
2022-11-16T13:13:52.975Z,9.32
2022-11-16T13:16:57.997Z,9.45
2022-11-16T13:20:41.625Z,9.54
2022-11-16T13:23:56.257Z,9.36
2022-11-16T13:27:24.919Z,9.32
2022-11-16T13:30:44.036Z,9.33
2022-11-16T13:33:58.517Z,9.31
2022-11-16T13:37:01.485Z,9.29
2022-11-16T13:40:04.643Z,9.31
2022-11-16T13:43:10.087Z,9.17
2022-11-16T13:46:27.628Z,9.18
2022-11-16T13:49:41.542Z,9.11
2022-11-16T13:53:57.550Z,9.18
2022-11-16T13:56:48.739Z,9.10
2022-11-16T14:00:05.273Z,9.07
2022-11-16T14:03:17.325Z,9.07
2022-11-16T14:06:19.961Z,8.82
2022-11-16T14:09:46.684Z,8.95
2022-11-16T14:12:56.060Z,8.98
2022-11-16T14:16:17.591Z,8.92
2022-11-16T14:19:49.119Z,9.03
2022-11-16T14:23:07.393Z,8.94
2022-11-16T14:26:13.865Z,8.94
2022-11-16T14:29:28.144Z,8.97
2022-11-16T14:32:46.117Z,8.99
2022-11-16T14:35:53.849Z,9.10
2022-11-16T14:39:31.770Z,9.18
2022-11-16T14:46:21.938Z,9.12
2022-11-16T14:49:27.435Z,9.21
2022-11-16T14:52:38.311Z,9.19
2022-11-16T14:55:44.988Z,9.14
2022-11-16T14:58:56.749Z,9.20
2022-11-16T15:02:05.056Z,9.20
2022-11-16T15:05:07.949Z,9.13
2022-11-16T15:08:23.319Z,9.19
2022-11-16T15:11:50.614Z,9.16
2022-11-16T15:14:57.243Z,9.03
2022-11-16T15:17:59.701Z,8.97
2022-11-16T15:21:02.527Z,8.94
2022-11-16T15:27:35.754Z,8.95
2022-11-16T15:30:38.460Z,9.14
2022-11-16T15:33:43.874Z,9.07
2022-11-16T15:36:48.110Z,9.12
2022-11-16T15:39:52.338Z,9.14
2022-11-16T15:42:55.728Z,9.10
2022-11-16T15:46:00.114Z,9.03
2022-11-16T15:49:03.238Z,9.04
2022-11-16T15:52:06.182Z,9.10
2022-11-16T15:55:31.719Z,9.03
2022-11-16T15:58:38.656Z,9.11
2022-11-16T16:01:45.016Z,9.14
2022-11-16T16:04:47.749Z,9.13
2022-11-16T16:07:50.399Z,9.02
2022-11-16T16:11:27.334Z,9.11
2022-11-16T16:14:31.258Z,9.00
2022-11-16T16:17:36.711Z,8.98
2022-11-16T16:20:39.445Z,9.06
2022-11-16T16:23:45.695Z,8.95
2022-11-16T16:26:48.137Z,9.03
2022-11-16T16:29:53.110Z,8.94
2022-11-16T16:32:56.187Z,8.61
2022-11-16T16:35:59.076Z,8.75
2022-11-16T16:39:01.808Z,8.93
2022-11-16T16:42:08.615Z,8.90
2022-11-16T16:45:20.852Z,8.83
2022-11-16T16:48:23.669Z,8.75
2022-11-16T16:51:28.627Z,8.77
2022-11-16T16:54:31.456Z,8.79
2022-11-16T16:57:33.996Z,8.87
2022-11-16T17:00:36.929Z,8.86
2022-11-16T17:03:39.437Z,8.86
2022-11-16T17:06:46.324Z,8.77
2022-11-16T17:09:49.216Z,8.79
2022-11-16T17:12:58.203Z,8.81
2022-11-16T17:16:04.685Z,8.86
2022-11-16T17:19:07.895Z,8.79
2022-11-16T17:22:10.974Z,8.83
2022-11-16T17:25:15.005Z,8.78
2022-11-16T17:28:18.476Z,8.85
2022-11-16T17:31:21.760Z,8.87
2022-11-16T17:34:25.885Z,8.75
2022-11-16T17:37:28.899Z,8.90
2022-11-16T17:40:31.711Z,8.91
2022-11-16T17:43:35.536Z,8.90
2022-11-16T17:46:38.597Z,8.80
2022-11-16T17:49:41.655Z,8.83
2022-11-16T17:52:44.334Z,8.84
2022-11-16T17:55:47.130Z,8.95
2022-11-16T17:58:52.881Z,8.94
2022-11-16T18:01:57.620Z,8.91
2022-11-16T18:05:00.570Z,9.07
2022-11-16T18:08:05.130Z,8.85
2022-11-16T18:11:09.776Z,8.98
2022-11-16T18:14:12.554Z,9.18
2022-11-16T18:17:15.777Z,8.86
2022-11-16T18:20:19.045Z,8.87
2022-11-16T18:23:22.132Z,8.82
2022-11-16T18:26:25.690Z,8.92
2022-11-16T18:29:28.654Z,8.73
2022-11-16T18:32:33.487Z,8.84
2022-11-16T18:35:36.496Z,8.73
2022-11-16T18:38:42.047Z,8.60
2022-11-16T18:41:48.718Z,8.78
2022-11-16T18:44:54.456Z,8.73
2022-11-16T18:47:57.846Z,8.71
2022-11-16T18:51:04.288Z,9.04
2022-11-16T18:54:08.577Z,8.76
2022-11-16T18:57:11.439Z,8.73
2022-11-16T19:00:15.299Z,8.84
2022-11-16T19:03:18.043Z,8.76
2022-11-16T19:06:22.299Z,8.78
2022-11-16T19:09:25.106Z,8.80
2022-11-16T19:12:28.622Z,8.87
2022-11-16T19:15:32.610Z,8.85
2022-11-16T19:18:36.783Z,8.77
2022-11-16T19:21:40.144Z,8.80
2022-11-16T19:24:42.920Z,8.71
2022-11-16T19:27:46.666Z,8.58
2022-11-16T19:30:49.904Z,8.73
2022-11-16T19:34:05.144Z,8.73
2022-11-16T19:37:08.498Z,8.76
2022-11-16T19:40:12.125Z,8.78
2022-11-16T19:43:15.094Z,8.87
2022-11-16T19:46:18.108Z,8.79
2022-11-16T19:49:21.870Z,8.70
2022-11-16T19:52:24.783Z,8.81
2022-11-16T19:55:27.779Z,8.75
2022-11-16T19:58:32.032Z,8.66
2022-11-16T20:01:35.250Z,8.61
2022-11-16T20:04:38.433Z,8.54
2022-11-16T20:07:41.262Z,8.60
2022-11-16T20:10:44.633Z,8.63
2022-11-16T20:13:48.433Z,8.60
2022-11-16T20:16:51.585Z,8.60
2022-11-16T20:19:54.405Z,8.69
2022-11-16T20:22:57.423Z,8.62
2022-11-16T20:26:14.069Z,8.57
2022-11-16T20:29:20.086Z,8.61
2022-11-16T20:32:23.779Z,8.52
2022-11-16T20:35:26.816Z,8.42
2022-11-16T20:38:32.352Z,8.30
2022-11-16T20:41:35.241Z,8.35
2022-11-16T20:44:38.786Z,8.37
2022-11-16T20:47:41.764Z,8.35
2022-11-16T20:50:45.572Z,8.50
2022-11-16T20:53:49.727Z,8.48
2022-11-16T20:56:52.389Z,8.50
2022-11-16T20:59:55.628Z,8.43
2022-11-16T21:02:58.326Z,8.44
2022-11-16T21:06:08.838Z,8.50
2022-11-16T21:09:12.301Z,8.45
2022-11-16T21:12:36.639Z,8.48
2022-11-16T21:15:41.262Z,8.40
2022-11-16T21:18:44.183Z,8.40
2022-11-16T21:21:46.866Z,8.53
2022-11-16T21:24:49.571Z,8.64
2022-11-16T21:27:52.170Z,8.63
2022-11-16T21:30:59.467Z,8.63
2022-11-16T21:34:02.565Z,8.61
2022-11-16T21:37:05.343Z,8.52
2022-11-16T21:40:08.611Z,8.65
2022-11-16T21:43:11.386Z,8.55
2022-11-16T21:46:27.214Z,8.46
2022-11-16T21:49:29.983Z,8.45
2022-11-16T21:52:32.400Z,8.39
2022-11-16T21:55:36.054Z,8.47
2022-11-16T21:58:39.341Z,8.36
2022-11-16T22:02:07.922Z,8.30
2022-11-16T22:05:29.758Z,8.37
2022-11-16T22:08:32.436Z,8.41
2022-11-16T22:11:35.247Z,8.34
2022-11-16T22:14:37.742Z,8.41
2022-11-16T22:17:44.276Z,8.45
2022-11-16T22:20:47.837Z,8.43
2022-11-16T22:23:50.710Z,8.45
2022-11-16T22:26:53.403Z,8.43
2022-11-16T22:29:56.157Z,8.46
2022-11-16T22:32:58.620Z,8.48
2022-11-16T22:36:01.472Z,8.47
2022-11-16T22:39:04.174Z,8.46
2022-11-16T22:42:07.068Z,8.45
2022-11-16T22:45:10.049Z,8.48
2022-11-16T22:48:12.955Z,8.46
2022-11-16T22:51:18.994Z,8.48
2022-11-16T22:54:27.366Z,8.38
2022-11-16T22:57:31.232Z,8.48
2022-11-16T23:00:40.527Z,8.45
2022-11-16T23:03:45.037Z,8.47
2022-11-16T23:06:49.503Z,8.53
2022-11-16T23:09:52.097Z,8.59
2022-11-16T23:13:14.045Z,8.60
2022-11-16T23:16:16.509Z,8.53
2022-11-16T23:19:39.942Z,8.48
2022-11-16T23:23:00.780Z,8.44
2022-11-16T23:26:29.325Z,8.53
2022-11-16T23:29:31.910Z,8.61
2022-11-16T23:32:34.701Z,8.59
2022-11-16T23:35:37.442Z,8.62
2022-11-16T23:38:40.599Z,8.62
2022-11-16T23:42:01.370Z,8.54
2022-11-16T23:45:04.839Z,8.43
2022-11-16T23:48:09.199Z,8.39
2022-11-16T23:51:12.122Z,8.27
2022-11-16T23:54:14.646Z,8.29
2022-11-16T23:57:17.543Z,8.35
